createdAt,value
2019-03-02T00:03:56.229Z,100713.08
2019-03-02T00:06:43.943Z,100717.02
2019-03-02T00:09:31.844Z,100716.63
2019-03-02T00:12:01.714Z,100718.80
2019-03-02T00:14:30.105Z,100718.52
2019-03-02T00:20:30.432Z,100719.83
2019-03-02T00:23:18.851Z,100703.38
2019-03-02T00:25:48.206Z,100709.94
2019-03-02T00:28:36.397Z,100714.39
2019-03-02T00:31:05.981Z,100707.34
2019-03-02T00:33:34.396Z,100716.76
2019-03-02T00:36:02.796Z,100712.94
2019-03-02T00:38:31.201Z,100718.84
2019-03-02T00:40:59.595Z,100714.98
2019-03-02T00:43:28.105Z,100710.53
2019-03-02T00:49:03.066Z,100704.00
2019-03-02T00:51:50.581Z,100695.31
2019-03-02T00:54:38.098Z,100698.39
2019-03-02T00:57:06.489Z,100694.20
2019-03-02T01:04:42.580Z,100695.71
2019-03-02T01:09:58.422Z,100687.02
2019-03-02T01:12:46.067Z,100680.13
2019-03-02T01:15:54.379Z,100682.64
2019-03-02T01:18:22.787Z,100686.47
2019-03-02T01:23:38.633Z,100678.28
2019-03-02T01:26:07.024Z,100683.11
2019-03-02T01:28:54.670Z,100676.04
2019-03-02T01:31:23.091Z,100683.87
2019-03-02T01:33:51.510Z,100679.41
2019-03-02T01:36:19.906Z,100672.40
2019-03-02T01:38:50.706Z,100669.67
2019-03-02T01:41:19.087Z,100669.00
2019-03-02T01:43:48.569Z,100664.17
2019-03-02T01:46:37.537Z,100661.94
2019-03-02T01:49:06.331Z,100664.94
2019-03-02T01:51:54.704Z,100662.71
2019-03-02T01:54:24.104Z,100665.59
2019-03-02T01:57:13.775Z,100657.47
2019-03-02T02:00:00.984Z,100649.63
2019-03-02T02:02:48.500Z,100650.89
2019-03-02T02:08:32.367Z,100645.78
2019-03-02T02:11:00.772Z,100645.59
2019-03-02T02:16:16.621Z,100646.45
2019-03-02T02:18:45.015Z,100648.68
2019-03-02T02:21:32.536Z,100641.44
2019-03-02T02:24:00.943Z,100643.52
2019-03-02T02:26:48.459Z,100637.45
2019-03-02T02:29:16.865Z,100634.80
2019-03-02T02:31:46.454Z,100642.70
2019-03-02T02:34:21.443Z,100638.67
2019-03-02T02:36:45.839Z,100637.01
2019-03-02T02:39:54.155Z,100625.08
2019-03-02T02:45:53.663Z,100622.78
2019-03-02T02:48:39.646Z,100623.05
2019-03-02T02:51:27.123Z,100626.22
2019-03-02T02:53:55.529Z,100628.06
2019-03-02T02:56:43.043Z,100632.88
2019-03-02T02:59:11.439Z,100622.58
2019-03-02T03:01:59.095Z,100623.52
2019-03-02T03:04:27.484Z,100613.30
2019-03-02T03:07:15.012Z,100607.73
2019-03-02T03:12:38.003Z,100613.91
2019-03-02T03:15:46.316Z,100618.11
2019-03-02T03:18:33.828Z,100611.67
2019-03-02T03:21:02.257Z,100601.66
2019-03-02T03:23:30.659Z,100599.79
2019-03-02T03:26:18.176Z,100590.18
2019-03-02T03:28:46.576Z,100590.77
2019-03-02T03:31:23.198Z,100578.81
2019-03-02T03:33:47.303Z,100579.08
2019-03-02T03:36:15.223Z,100584.50
2019-03-02T03:38:43.617Z,100578.17
2019-03-02T03:41:51.939Z,100583.71
2019-03-02T03:44:25.647Z,100580.25
2019-03-02T03:46:50.447Z,100584.59
2019-03-02T03:49:18.845Z,100579.89
2019-03-02T03:51:47.249Z,100577.48
2019-03-02T03:54:34.888Z,100575.90
2019-03-02T03:59:58.680Z,100573.42
2019-03-02T04:05:07.115Z,100580.95
2019-03-02T04:07:51.744Z,100576.55
2019-03-02T04:10:26.014Z,100578.14
2019-03-02T04:12:51.599Z,100581.69
2019-03-02T04:15:59.929Z,100576.39
2019-03-02T04:19:06.909Z,100574.86
2019-03-02T04:22:15.464Z,100581.44
2019-03-02T04:24:43.866Z,100578.91
2019-03-02T04:27:15.498Z,100578.40
2019-03-02T04:38:00.717Z,100576.03
2019-03-02T04:40:29.109Z,100580.45
2019-03-02T04:42:58.188Z,100579.85
2019-03-02T04:45:26.583Z,100582.42
2019-03-02T04:48:14.322Z,100581.47
2019-03-02T04:50:42.740Z,100577.88
2019-03-02T04:53:11.126Z,100587.07
2019-03-02T04:58:46.962Z,100587.03
2019-03-02T05:01:16.217Z,100587.66
2019-03-02T05:03:44.593Z,100579.45
2019-03-02T05:09:48.598Z,100589.77
2019-03-02T05:12:36.687Z,100584.84
2019-03-02T05:15:44.986Z,100583.53
2019-03-02T05:18:14.816Z,100581.30
2019-03-02T05:20:43.505Z,100575.39
2019-03-02T05:23:31.532Z,100574.33
2019-03-02T05:26:20.396Z,100571.59
2019-03-02T05:29:07.909Z,100577.62
2019-03-02T05:31:55.554Z,100573.86
2019-03-02T05:34:23.946Z,100570.56
2019-03-02T05:42:00.404Z,100578.55
2019-03-02T05:44:28.789Z,100581.97
2019-03-02T05:46:57.785Z,100581.56
2019-03-02T05:49:27.297Z,100578.58
2019-03-02T05:51:55.699Z,100576.80
2019-03-02T05:54:24.440Z,100572.34
2019-03-02T05:56:52.842Z,100572.58
2019-03-02T05:59:22.786Z,100570.59
2019-03-02T06:01:51.358Z,100572.75
2019-03-02T06:04:22.061Z,100575.66
2019-03-02T06:07:09.119Z,100575.00
2019-03-02T06:09:37.516Z,100570.25
2019-03-02T06:12:05.918Z,100567.04
2019-03-02T06:14:53.430Z,100573.09
2019-03-02T06:17:21.835Z,100571.93
2019-03-02T06:20:09.480Z,100571.46
2019-03-02T06:23:17.792Z,100566.56
2019-03-02T06:31:07.414Z,100565.63
2019-03-02T06:34:16.726Z,100565.30
2019-03-02T06:36:46.026Z,100567.22
2019-03-02T06:39:15.979Z,100574.53
2019-03-02T06:42:06.156Z,100570.69
2019-03-02T06:47:26.296Z,100572.31
2019-03-02T06:49:59.096Z,100576.44
2019-03-02T06:52:26.130Z,100581.95
2019-03-02T06:55:14.195Z,100576.95
2019-03-02T06:57:46.154Z,100578.34
2019-03-02T07:00:32.055Z,100584.03
2019-03-02T07:03:19.796Z,100582.66
2019-03-02T07:08:36.376Z,100578.47
2019-03-02T07:11:05.744Z,100579.67
2019-03-02T07:13:34.151Z,100578.67
2019-03-02T07:16:21.920Z,100573.52
2019-03-02T07:19:09.433Z,100575.55
2019-03-02T07:21:57.663Z,100575.25
2019-03-02T07:24:29.498Z,100575.34
2019-03-02T07:27:16.316Z,100582.25
2019-03-02T07:29:44.719Z,100583.80
2019-03-02T07:32:32.367Z,100585.98
2019-03-02T07:35:00.775Z,100577.30
2019-03-02T07:37:48.286Z,100584.24
2019-03-02T07:40:56.610Z,100579.23
2019-03-02T07:43:46.385Z,100584.36
2019-03-02T07:46:14.243Z,100585.11
2019-03-02T07:49:01.760Z,100586.52
2019-03-02T07:54:17.613Z,100590.11
2019-03-02T07:56:46.006Z,100590.84
2019-03-02T07:59:14.438Z,100592.05
2019-03-02T08:02:02.216Z,100599.78
2019-03-02T08:04:30.623Z,100596.73
2019-03-02T08:07:18.165Z,100588.96
2019-03-02T08:09:46.598Z,100590.59
2019-03-02T08:12:34.132Z,100586.66
2019-03-02T08:15:24.250Z,100584.00
2019-03-02T08:18:11.048Z,100583.31
2019-03-02T08:20:39.499Z,100586.64
2019-03-02T08:31:35.251Z,100591.91
2019-03-02T08:34:05.994Z,100594.53
2019-03-02T08:39:21.252Z,100591.42
2019-03-02T08:41:49.675Z,100587.49
2019-03-02T08:47:11.383Z,100591.95
2019-03-02T08:49:59.064Z,100589.02
2019-03-02T08:52:46.733Z,100586.49
2019-03-02T08:55:35.077Z,100585.34
2019-03-02T08:58:04.662Z,100576.42
2019-03-02T09:01:15.358Z,100569.67
2019-03-02T09:04:03.255Z,100571.45
2019-03-02T09:06:34.795Z,100567.86
2019-03-02T09:11:44.507Z,100566.88
2019-03-02T09:14:31.162Z,100568.56
2019-03-02T09:16:59.580Z,100561.88
2019-03-02T09:19:28.012Z,100566.64
2019-03-02T09:21:56.427Z,100569.50
2019-03-02T09:26:58.834Z,100559.44
2019-03-02T09:29:46.361Z,100556.92
2019-03-02T09:32:34.044Z,100552.30
2019-03-02T09:35:02.486Z,100555.25
2019-03-02T09:37:30.953Z,100554.53
2019-03-02T09:39:59.367Z,100555.94
2019-03-02T09:42:47.016Z,100549.84
2019-03-02T09:45:55.338Z,100548.12
2019-03-02T09:48:43.045Z,100547.58
2019-03-02T09:51:11.515Z,100547.74
2019-03-02T09:53:39.950Z,100545.79
2019-03-02T09:56:08.459Z,100547.97
2019-03-02T09:58:36.967Z,100548.74
2019-03-02T10:01:24.727Z,100545.11
2019-03-02T10:03:53.117Z,100541.48
2019-03-02T10:06:21.759Z,100534.52
2019-03-02T10:08:51.763Z,100528.39
2019-03-02T10:11:20.276Z,100526.19
2019-03-02T10:13:48.668Z,100528.66
2019-03-02T10:16:36.189Z,100531.56
2019-03-02T10:19:25.055Z,100537.03
2019-03-02T10:22:13.204Z,100531.48
2019-03-02T10:25:00.743Z,100533.23
2019-03-02T10:27:29.135Z,100529.33
2019-03-02T10:30:16.782Z,100518.59
2019-03-02T10:33:04.465Z,100527.25
2019-03-02T10:35:32.865Z,100529.41
2019-03-02T10:41:08.043Z,100523.62
2019-03-02T10:43:55.702Z,100515.98
2019-03-02T10:46:24.108Z,100523.42
2019-03-02T10:54:14.059Z,100516.25
2019-03-02T10:57:01.804Z,100506.66
2019-03-02T10:59:51.769Z,100509.16
2019-03-02T11:02:38.816Z,100516.63
2019-03-02T11:05:47.148Z,100505.72
2019-03-02T11:08:34.667Z,100501.37
2019-03-02T11:11:25.670Z,100502.46
2019-03-02T11:17:22.902Z,100498.83
2019-03-02T11:20:08.739Z,100502.02
2019-03-02T11:23:19.737Z,100497.02
2019-03-02T11:26:06.305Z,100497.40
2019-03-02T11:28:54.081Z,100488.94
2019-03-02T11:34:18.288Z,100482.78
2019-03-02T11:37:06.271Z,100484.55
2019-03-02T11:39:54.223Z,100483.97
2019-03-02T11:42:41.793Z,100485.69
2019-03-02T11:45:48.564Z,100483.83
2019-03-02T11:48:36.084Z,100488.23
2019-03-02T11:54:18.804Z,100473.78
2019-03-02T11:57:07.987Z,100473.77
2019-03-02T11:59:55.570Z,100478.60
2019-03-02T12:03:02.781Z,100467.16
2019-03-02T12:05:51.331Z,100460.97
2019-03-02T12:08:38.852Z,100465.38
2019-03-02T12:11:26.366Z,100451.38
2019-03-02T12:14:13.946Z,100448.59
2019-03-02T12:17:20.720Z,100437.64
2019-03-02T12:23:18.104Z,100432.76
2019-03-02T12:26:07.879Z,100427.57
2019-03-02T12:28:54.867Z,100424.08
2019-03-02T12:32:03.992Z,100426.11
2019-03-02T12:34:50.924Z,100422.55
2019-03-02T12:37:38.450Z,100422.91
2019-03-02T12:40:46.745Z,100421.43
2019-03-02T12:46:16.759Z,100407.85
2019-03-02T12:54:53.213Z,100416.55
2019-03-02T12:57:41.480Z,100400.50
2019-03-02T13:00:50.781Z,100400.14
2019-03-02T13:03:57.568Z,100393.27
2019-03-02T13:06:46.276Z,100393.09
2019-03-02T13:09:36.847Z,100387.23
2019-03-02T13:15:12.649Z,100378.24
2019-03-02T13:18:00.422Z,100373.20
2019-03-02T13:20:47.932Z,100372.86
2019-03-02T13:26:14.842Z,100373.50
2019-03-02T13:29:02.428Z,100382.13
2019-03-02T13:32:09.197Z,100371.64
2019-03-02T13:35:15.976Z,100374.80
2019-03-02T13:38:03.507Z,100361.41
2019-03-02T13:40:51.032Z,100358.51
2019-03-02T13:46:52.466Z,100366.44
2019-03-02T13:52:34.767Z,100360.97
2019-03-02T14:01:11.496Z,100359.33
2019-03-02T14:09:29.393Z,100350.04
2019-03-02T14:12:19.752Z,100345.38
2019-03-02T14:17:41.876Z,100347.14
2019-03-02T14:25:44.183Z,100340.79
2019-03-02T14:28:34.778Z,100341.44
2019-03-02T14:31:20.953Z,100335.33
2019-03-02T14:36:57.553Z,100335.23
2019-03-02T14:39:45.079Z,100329.73
2019-03-02T14:42:51.845Z,100326.83
2019-03-02T14:45:39.370Z,100329.94
2019-03-02T14:48:27.114Z,100331.84
2019-03-02T14:51:16.957Z,100333.02
2019-03-02T14:56:53.385Z,100332.14
2019-03-02T15:00:00.245Z,100331.52
2019-03-02T15:02:49.066Z,100320.98
2019-03-02T15:05:37.007Z,100318.16
2019-03-02T15:08:24.523Z,100323.62
2019-03-02T15:11:13.540Z,100322.36
2019-03-02T15:14:02.517Z,100316.23
2019-03-02T15:17:12.236Z,100318.37
2019-03-02T15:19:59.015Z,100323.86
2019-03-02T15:22:46.531Z,100317.08
2019-03-02T15:25:34.053Z,100313.61
2019-03-02T15:28:28.940Z,100311.41
2019-03-02T15:31:30.070Z,100309.65
2019-03-02T15:34:17.589Z,100307.06
2019-03-02T15:37:05.118Z,100299.46
2019-03-02T15:39:53.496Z,100302.88
2019-03-02T15:42:42.589Z,100295.93
2019-03-02T15:45:31.141Z,100295.89
2019-03-02T15:48:18.657Z,100289.31
2019-03-02T15:56:39.621Z,100287.11
2019-03-02T15:59:27.136Z,100288.22
2019-03-02T16:07:48.367Z,100267.16
2019-03-02T16:10:35.884Z,100276.66
2019-03-02T16:13:24.483Z,100272.71
2019-03-02T16:24:06.784Z,100261.58
2019-03-02T16:26:54.390Z,100259.39
2019-03-02T16:32:30.936Z,100253.45
2019-03-02T16:35:21.040Z,100252.64
2019-03-02T16:38:07.707Z,100248.92
2019-03-02T16:40:58.188Z,100244.13
2019-03-02T16:43:44.469Z,100246.51
2019-03-02T16:49:27.001Z,100239.14
2019-03-02T16:55:29.733Z,100248.38
2019-03-02T16:58:36.765Z,100253.99
2019-03-02T17:01:45.083Z,100245.39
2019-03-02T17:04:32.602Z,100247.97
2019-03-02T17:13:32.149Z,100246.23
2019-03-02T17:19:28.562Z,100244.78
2019-03-02T17:25:26.860Z,100244.94
2019-03-02T17:28:14.745Z,100238.95
2019-03-02T17:31:03.813Z,100233.50
2019-03-02T17:36:26.669Z,100244.07
2019-03-02T17:39:14.197Z,100237.27
2019-03-02T17:42:01.708Z,100238.24
2019-03-02T17:52:54.544Z,100243.63
2019-03-02T17:58:50.172Z,100242.05
2019-03-02T18:01:37.686Z,100235.38
2019-03-02T18:04:25.470Z,100230.59
2019-03-02T18:12:41.493Z,100229.16
2019-03-02T18:15:49.823Z,100222.12
2019-03-02T18:18:18.223Z,100215.73
2019-03-02T18:21:05.881Z,100212.34
2019-03-02T18:23:34.296Z,100205.65
2019-03-02T18:26:02.713Z,100200.88
2019-03-02T18:28:31.124Z,100200.97
2019-03-02T18:31:20.233Z,100210.38
2019-03-02T18:36:49.967Z,100199.73
2019-03-02T18:41:54.039Z,100194.66
2019-03-02T18:44:22.601Z,100186.95
2019-03-02T18:47:11.184Z,100178.10
2019-03-02T18:49:58.708Z,100169.64
2019-03-02T18:55:16.209Z,100162.09
2019-03-02T18:58:03.855Z,100159.78
2019-03-02T19:03:27.283Z,100157.98
2019-03-02T19:05:55.697Z,100167.45
2019-03-02T19:08:43.434Z,100170.46
2019-03-02T19:11:11.863Z,100173.00
2019-03-02T19:13:40.683Z,100163.52
2019-03-02T19:16:10.414Z,100165.84
2019-03-02T19:18:58.057Z,100163.88
2019-03-02T19:21:26.476Z,100165.33
2019-03-02T19:24:14.133Z,100153.84
2019-03-02T19:27:01.652Z,100153.11
2019-03-02T19:29:49.305Z,100154.23
2019-03-02T19:35:45.070Z,100139.92
2019-03-02T19:38:13.470Z,100134.49
2019-03-02T19:40:41.882Z,100132.98
2019-03-02T19:46:17.075Z,100119.34
2019-03-02T19:51:32.930Z,100116.91
2019-03-02T19:57:27.235Z,100111.91
2019-03-02T20:00:14.771Z,100107.07
2019-03-02T20:03:02.418Z,100103.41
2019-03-02T20:05:30.834Z,100094.03
2019-03-02T20:07:59.246Z,100093.48
2019-03-02T20:10:46.974Z,100093.64
2019-03-02T20:13:15.407Z,100092.11
2019-03-02T20:16:03.268Z,100092.28
2019-03-02T20:18:31.657Z,100088.66
2019-03-02T20:21:00.067Z,100091.47
2019-03-02T20:23:47.588Z,100087.02
2019-03-02T20:28:49.685Z,100083.48
2019-03-02T20:31:18.385Z,100081.48
2019-03-02T20:34:06.033Z,100076.38
2019-03-02T20:36:34.441Z,100073.97
2019-03-02T20:41:51.928Z,100070.45
2019-03-02T20:44:39.476Z,100067.31
2019-03-02T20:47:26.993Z,100066.23
2019-03-02T20:53:02.091Z,100063.88
2019-03-02T20:55:30.520Z,100045.84
2019-03-02T20:57:58.944Z,100048.83
2019-03-02T21:01:07.276Z,100044.31
2019-03-02T21:03:54.793Z,100048.11
2019-03-02T21:09:37.682Z,100045.27
2019-03-02T21:14:59.581Z,100021.75
2019-03-02T21:17:29.442Z,100015.86
2019-03-02T21:19:58.118Z,100023.07
2019-03-02T21:22:26.529Z,100011.16
2019-03-02T21:25:14.185Z,100007.92
2019-03-02T21:27:42.621Z,100006.13
2019-03-02T21:33:32.468Z,100001.65
2019-03-02T21:38:48.312Z,99994.27
2019-03-02T21:41:36.033Z,99985.31
2019-03-02T21:46:51.877Z,99979.18
2019-03-02T21:49:39.390Z,99969.72
2019-03-02T21:52:27.040Z,99961.55
2019-03-02T21:55:14.560Z,99963.73
2019-03-02T21:58:02.214Z,99953.69
2019-03-02T22:00:49.948Z,99956.39
2019-03-02T22:03:18.404Z,99948.13
2019-03-02T22:06:26.724Z,99946.53
2019-03-02T22:08:55.138Z,99948.25
2019-03-02T22:11:42.790Z,99943.94
2019-03-02T22:14:11.195Z,99944.05
2019-03-02T22:16:39.602Z,99942.84
2019-03-02T22:19:27.133Z,99938.41
2019-03-02T22:21:55.531Z,99943.76
2019-03-02T22:27:16.879Z,99932.40
2019-03-02T22:30:25.264Z,99931.66
2019-03-02T22:33:33.591Z,99935.38
2019-03-02T22:36:01.989Z,99930.28
2019-03-02T22:38:30.397Z,99927.20
2019-03-02T22:43:49.253Z,99920.86
2019-03-02T22:46:17.652Z,99923.47
2019-03-02T22:48:46.063Z,99919.27
2019-03-02T22:51:14.472Z,99921.23
2019-03-02T22:54:01.996Z,99919.80
2019-03-02T22:56:49.505Z,99912.77
2019-03-02T22:59:17.907Z,99911.75
2019-03-02T23:02:26.269Z,99908.16
2019-03-02T23:05:13.923Z,99901.16
2019-03-02T23:08:01.591Z,99898.45
2019-03-02T23:10:29.990Z,99901.52
2019-03-02T23:13:17.888Z,99903.15
2019-03-02T23:16:05.423Z,99903.31
2019-03-02T23:18:33.828Z,99905.56
2019-03-02T23:24:28.168Z,99900.63
2019-03-02T23:26:56.529Z,99894.22
2019-03-02T23:29:44.184Z,99894.65
2019-03-02T23:32:31.697Z,99895.80
2019-03-02T23:35:00.163Z,99882.19
2019-03-02T23:37:47.819Z,99886.70
2019-03-02T23:40:56.136Z,99880.44
2019-03-02T23:43:24.539Z,99879.45
2019-03-02T23:46:12.191Z,99873.59
2019-03-02T23:48:40.583Z,99868.70
2019-03-02T23:51:08.993Z,99868.45
2019-03-02T23:54:17.303Z,99864.78
2019-03-02T23:57:04.811Z,99861.73
